Time;durP1;ratioP1;P1;durP2;ratioP2;P2;SDS_P1;SDS_P2;PMS_P1;PMS_P2;Temp;Humidity;BMP_temperature;BMP_pressure;BME280_temperature;BME280_humidity;BME280_pressure;Samples;Min_cycle;Max_cycle;Signal;HPM_P1;HPM_P2
2021/09/08 00:01:41;;;;;;;11.95;10.30;;;13.90;86.40;;;;;;5031506;28;20276;-69
2021/09/08 00:04:10;;;;;;;10.98;9.40;;;13.90;85.70;;;;;;5030573;28;20351;-69
2021/09/08 00:06:37;;;;;;;13.18;9.68;;;13.90;85.70;;;;;;5030448;28;20195;-69
2021/09/08 00:09:06;;;;;;;13.45;10.00;;;13.90;85.40;;;;;;5030474;28;20191;-69
2021/09/08 00:11:33;;;;;;;10.73;9.27;;;13.80;86.50;;;;;;5030952;28;20191;-69
2021/09/08 00:14:00;;;;;;;13.63;10.80;;;13.80;86.70;;;;;;5030067;28;20274;-71
2021/09/08 00:16:27;;;;;;;11.43;9.63;;;13.70;86.50;;;;;;5013504;28;20188;-69
2021/09/08 00:18:57;;;;;;;18.55;10.95;;;13.70;86.60;;;;;;5013211;28;20887;-69
2021/09/08 00:21:25;;;;;;;14.70;10.90;;;13.70;86.60;;;;;;5013730;28;20314;-70
2021/09/08 00:24:06;;;;;;;13.00;10.05;;;13.70;87.60;;;;;;5026512;28;20265;-71
2021/09/08 00:26:35;;;;;;;12.00;9.82;;;13.70;87.40;;;;;;5022409;28;20258;-69
2021/09/08 00:29:02;;;;;;;13.90;10.18;;;13.60;87.70;;;;;;5023352;28;20183;-69
2021/09/08 00:31:29;;;;;;;14.68;9.85;;;13.50;87.40;;;;;;5030115;28;20237;-76
2021/09/08 00:33:56;;;;;;;13.85;11.52;;;13.50;88.10;;;;;;5030292;28;20701;-69
2021/09/08 00:36:25;;;;;;;13.07;11.38;;;13.50;88.30;;;;;;5030554;28;20194;-69
2021/09/08 00:38:52;;;;;;;13.30;10.85;;;13.50;88.60;;;;;;5029418;28;20741;-70
2021/09/08 00:41:23;;;;;;;18.30;10.20;;;13.60;89.20;;;;;;5030461;28;20215;-69
2021/09/08 00:43:50;;;;;;;16.90;10.00;;;13.60;89.90;;;;;;5014244;28;20562;-69
2021/09/08 00:46:17;;;;;;;11.82;9.70;;;13.70;89.70;;;;;;5012714;28;20329;-70
2021/09/08 00:48:49;;;;;;;12.32;11.02;;;13.70;89.90;;;;;;5026258;28;20187;-69
2021/09/08 00:51:16;;;;;;;14.00;11.05;;;13.70;89.30;;;;;;5030271;28;20680;-69
2021/09/08 00:53:45;;;;;;;14.13;10.55;;;13.70;89.20;;;;;;5029546;28;20649;-68
2021/09/08 00:56:14;;;;;;;12.18;9.88;;;13.70;89.00;;;;;;5029238;28;20642;-69
2021/09/08 00:58:42;;;;;;;12.57;9.35;;;13.70;88.60;;;;;;5030441;28;20219;-68
2021/09/08 01:01:09;;;;;;;10.90;9.57;;;13.60;87.80;;;;;;5030565;28;20191;-73
2021/09/08 01:03:36;;;;;;;10.32;9.13;;;13.60;87.70;;;;;;5032728;28;20621;-68
2021/09/08 01:06:04;;;;;;;11.98;9.32;;;13.50;87.50;;;;;;5032456;28;20201;-78
2021/09/08 01:08:31;;;;;;;12.38;10.15;;;13.50;86.90;;;;;;5032832;28;20249;-68
2021/09/08 01:11:00;;;;;;;15.80;10.05;;;13.50;86.00;;;;;;5031933;28;20286;-78
2021/09/08 01:13:27;;;;;;;12.02;10.73;;;13.40;86.20;;;;;;5013178;28;20215;-69
2021/09/08 01:15:58;;;;;;;11.55;8.77;;;13.30;86.00;;;;;;5013261;28;20227;-69
2021/09/08 01:18:26;;;;;;;11.90;9.40;;;13.30;85.60;;;;;;5013215;28;20198;-70
2021/09/08 01:20:52;;;;;;;11.25;10.02;;;13.30;85.80;;;;;;5016886;28;20188;-69
2021/09/08 01:23:21;;;;;;;14.02;9.40;;;13.20;86.10;;;;;;5032936;28;20317;-68
2021/09/08 01:25:49;;;;;;;9.80;8.38;;;13.20;86.10;;;;;;5032305;28;20191;-70
2021/09/08 01:28:16;;;;;;;13.15;8.73;;;13.20;86.10;;;;;;5012971;28;20209;-70
2021/09/08 01:30:43;;;;;;;13.13;8.23;;;13.20;85.80;;;;;;5014456;28;20302;-69
2021/09/08 01:33:10;;;;;;;10.07;8.75;;;13.20;85.70;;;;;;5032883;28;20358;-68
2021/09/08 01:35:38;;;;;;;11.80;9.55;;;13.20;85.80;;;;;;5032404;28;20273;-74
2021/09/08 01:38:05;;;;;;;13.20;8.50;;;13.10;85.30;;;;;;5012392;28;20677;-69
2021/09/08 01:40:33;;;;;;;10.10;8.52;;;13.10;85.10;;;;;;5013047;28;20274;-69
2021/09/08 01:43:01;;;;;;;11.30;8.80;;;13.00;85.30;;;;;;5012737;28;20633;-69
2021/09/08 01:45:28;;;;;;;9.80;7.88;;;12.90;85.80;;;;;;5017133;28;20296;-68
2021/09/08 01:47:57;;;;;;;9.60;8.20;;;12.90;86.00;;;;;;5032262;28;20194;-70
2021/09/08 01:50:24;;;;;;;9.23;8.18;;;12.80;86.10;;;;;;5032777;28;20193;-69
2021/09/08 01:52:52;;;;;;;11.60;8.25;;;12.80;85.70;;;;;;5032485;28;20187;-70
2021/09/08 01:55:19;;;;;;;13.20;8.38;;;12.70;85.80;;;;;;5031966;28;20187;-69
2021/09/08 01:57:47;;;;;;;11.82;9.32;;;12.70;86.00;;;;;;5032703;28;20592;-69
2021/09/08 02:00:16;;;;;;;12.77;9.30;;;12.70;86.40;;;;;;5032320;28;20287;-70
2021/09/08 02:02:43;;;;;;;12.48;9.05;;;12.70;86.60;;;;;;5032558;28;20261;-69
2021/09/08 02:05:12;;;;;;;11.25;9.27;;;12.70;86.40;;;;;;5031645;28;20712;-80
2021/09/08 02:07:39;;;;;;;7.05;6.10;;;12.70;86.10;;;;;;5031794;28;20191;-69
2021/09/08 02:10:08;;;;;;;7.78;6.07;;;12.60;86.50;;;;;;5031114;28;20231;-69
2021/09/08 02:12:36;;;;;;;10.00;8.30;;;12.50;86.60;;;;;;5031913;28;20267;-68
2021/09/08 02:15:06;;;;;;;11.65;9.57;;;12.50;87.30;;;;;;5031747;28;20246;-69
2021/09/08 02:17:34;;;;;;;11.35;8.30;;;12.50;87.90;;;;;;5031319;28;20183;-69
2021/09/08 02:20:01;;;;;;;10.27;8.52;;;12.40;88.40;;;;;;5031803;28;20191;-69
2021/09/08 02:22:28;;;;;;;11.05;8.40;;;12.40;88.50;;;;;;5031406;28;20215;-69
2021/09/08 02:24:55;;;;;;;9.73;8.73;;;12.50;88.80;;;;;;5031824;28;20218;-69
2021/09/08 02:27:24;;;;;;;9.25;8.07;;;12.50;88.60;;;;;;5031268;28;20193;-69
2021/09/08 02:29:51;;;;;;;12.13;9.23;;;12.60;89.00;;;;;;5031777;28;20195;-69
2021/09/08 02:32:21;;;;;;;11.95;8.55;;;12.60;89.20;;;;;;5031380;28;20191;-69
2021/09/08 02:34:48;;;;;;;10.65;7.88;;;12.60;89.00;;;;;;5031644;28;20722;-69
2021/09/08 02:37:15;;;;;;;8.60;7.70;;;12.60;88.50;;;;;;5032147;28;20613;-68
2021/09/08 02:39:42;;;;;;;11.23;7.55;;;12.60;87.70;;;;;;5031946;28;20183;-68
2021/09/08 02:42:11;;;;;;;8.60;7.55;;;12.60;86.60;;;;;;5031905;28;20276;-69
2021/09/08 02:44:38;;;;;;;8.32;6.70;;;12.60;85.90;;;;;;5031924;28;20233;-69
2021/09/08 02:47:04;;;;;;;9.45;6.88;;;12.50;85.70;;;;;;5034119;28;20369;-69
2021/09/08 02:49:33;;;;;;;8.63;6.88;;;12.50;85.20;;;;;;5035386;28;20285;-69
2021/09/08 02:52:02;;;;;;;9.55;7.35;;;12.40;85.30;;;;;;5035125;28;20278;-69
2021/09/08 02:54:29;;;;;;;7.97;7.18;;;12.30;85.30;;;;;;5035360;28;20202;-69
2021/09/08 02:56:55;;;;;;;8.63;7.07;;;12.30;85.30;;;;;;5035184;28;20641;-69
2021/09/08 02:59:22;;;;;;;9.55;8.05;;;12.20;85.80;;;;;;5035429;28;20729;-69
2021/09/08 03:01:49;;;;;;;8.52;7.55;;;12.20;86.20;;;;;;5035486;28;20297;-68
2021/09/08 03:04:16;;;;;;;7.93;6.97;;;12.10;86.50;;;;;;5035191;28;20637;-68
2021/09/08 03:06:48;;;;;;;9.23;7.03;;;12.10;86.30;;;;;;5035244;28;20227;-69
2021/09/08 03:09:15;;;;;;;9.52;7.75;;;12.10;86.20;;;;;;5035101;28;20224;-68
2021/09/08 03:11:42;;;;;;;9.75;7.50;;;12.10;86.60;;;;;;5034475;28;20668;-69
2021/09/08 03:14:09;;;;;;;9.05;7.75;;;12.00;86.70;;;;;;5034874;28;20187;-69
2021/09/08 03:16:36;;;;;;;12.85;8.07;;;12.00;87.10;;;;;;5034803;28;20705;-69
2021/09/08 03:19:03;;;;;;;10.07;8.10;;;12.00;87.90;;;;;;5034532;28;20277;-69
2021/09/08 03:21:30;;;;;;;11.95;9.60;;;12.00;87.40;;;;;;5034390;28;20285;-70
2021/09/08 03:23:59;;;;;;;10.75;8.80;;;11.90;87.50;;;;;;5034868;28;20673;-70
2021/09/08 03:26:26;;;;;;;12.50;9.85;;;11.90;87.80;;;;;;5034882;28;20234;-69
2021/09/08 03:28:52;;;;;;;10.05;8.93;;;11.90;88.20;;;;;;5034499;28;20237;-68
2021/09/08 03:31:19;;;;;;;9.13;7.85;;;11.90;88.50;;;;;;5034473;28;20193;-69
2021/09/08 03:33:46;;;;;;;9.48;6.72;;;11.90;88.90;;;;;;5034965;28;20198;-68
2021/09/08 03:36:13;;;;;;;9.13;7.32;;;11.90;89.50;;;;;;5034050;28;20286;-69
2021/09/08 03:38:40;;;;;;;9.50;7.28;;;11.90;89.40;;;;;;5034617;28;20278;-69
2021/09/08 03:41:08;;;;;;;11.93;7.32;;;11.90;90.00;;;;;;5034555;28;20664;-69
2021/09/08 03:43:35;;;;;;;10.90;7.60;;;12.00;89.90;;;;;;5034571;28;20321;-69
2021/09/08 03:46:05;;;;;;;10.45;9.25;;;12.00;88.90;;;;;;5034189;28;20268;-69
2021/09/08 03:48:32;;;;;;;7.65;6.72;;;12.00;87.70;;;;;;5034377;28;20198;-72
2021/09/08 03:50:59;;;;;;;8.00;6.50;;;11.90;87.70;;;;;;5034442;28;20191;-69
2021/09/08 03:53:26;;;;;;;7.93;6.40;;;11.90;88.10;;;;;;5033904;28;20282;-69
2021/09/08 03:55:54;;;;;;;7.82;6.85;;;11.90;88.40;;;;;;5033227;28;20191;-70
2021/09/08 03:58:22;;;;;;;8.02;7.22;;;11.80;88.70;;;;;;5033330;28;20187;-71
2021/09/08 04:00:49;;;;;;;8.63;6.90;;;11.90;88.70;;;;;;5034307;28;20298;-69
2021/09/08 04:03:16;;;;;;;8.82;7.80;;;11.90;89.10;;;;;;5033850;28;20764;-69
2021/09/08 04:05:43;;;;;;;8.77;7.72;;;12.00;89.10;;;;;;5034725;28;20606;-69
2021/09/08 04:08:10;;;;;;;9.20;6.97;;;12.00;88.40;;;;;;5033851;28;20617;-68
2021/09/08 04:10:37;;;;;;;7.63;6.55;;;11.90;86.90;;;;;;5034511;28;20233;-69
2021/09/08 04:13:04;;;;;;;7.60;6.03;;;11.80;87.20;;;;;;5033912;28;20261;-69
2021/09/08 04:15:33;;;;;;;8.43;7.10;;;11.70;86.80;;;;;;5034039;28;20293;-71
2021/09/08 04:18:00;;;;;;;8.07;6.93;;;11.60;87.30;;;;;;5033886;28;20187;-68
2021/09/08 04:20:27;;;;;;;9.45;7.25;;;11.60;87.50;;;;;;5034152;28;20187;-69
2021/09/08 04:22:54;;;;;;;8.48;7.03;;;11.60;87.90;;;;;;5033556;28;21430;-69
2021/09/08 04:25:21;;;;;;;7.43;6.40;;;11.60;88.10;;;;;;5033874;28;20219;-70
2021/09/08 04:27:51;;;;;;;8.73;6.90;;;11.60;88.30;;;;;;5033868;28;20191;-69
2021/09/08 04:30:17;;;;;;;9.02;7.10;;;11.60;88.50;;;;;;5033787;28;20195;-69
2021/09/08 04:32:46;;;;;;;7.78;6.65;;;11.60;87.70;;;;;;5032956;28;20276;-69
2021/09/08 04:35:13;;;;;;;9.40;7.32;;;11.60;87.50;;;;;;5033741;28;20290;-69
2021/09/08 04:37:39;;;;;;;9.20;7.18;;;11.60;87.90;;;;;;5033247;28;20274;-69
2021/09/08 04:40:08;;;;;;;7.70;6.20;;;11.60;87.50;;;;;;5033404;28;20230;-69
2021/09/08 04:42:35;;;;;;;8.85;7.05;;;11.50;87.10;;;;;;5033633;28;20211;-69
2021/09/08 04:45:01;;;;;;;7.63;6.68;;;11.50;87.00;;;;;;5033526;28;20317;-69
2021/09/08 04:47:28;;;;;;;7.07;6.00;;;11.50;87.50;;;;;;5033041;28;20221;-70
2021/09/08 04:49:57;;;;;;;8.18;6.05;;;11.40;87.30;;;;;;5032012;28;20187;-69
2021/09/08 04:52:23;;;;;;;7.88;7.05;;;11.40;87.70;;;;;;5031213;28;20278;-69
2021/09/08 04:54:50;;;;;;;10.70;7.32;;;11.50;87.90;;;;;;5033376;28;20226;-69
2021/09/08 04:57:17;;;;;;;9.57;7.95;;;11.50;87.80;;;;;;5033274;28;20281;-69
2021/09/08 04:59:44;;;;;;;10.60;6.60;;;11.40;87.80;;;;;;5033565;28;20190;-69
2021/09/08 05:02:11;;;;;;;12.45;8.70;;;11.40;88.30;;;;;;5032977;28;20282;-69
2021/09/08 05:04:38;;;;;;;11.75;7.72;;;11.40;89.00;;;;;;5032861;28;20257;-69
2021/09/08 05:07:12;;;;;;;8.10;6.50;;;11.40;89.10;;;;;;5031672;28;20227;-68
2021/09/08 05:09:39;;;;;;;9.85;6.78;;;11.40;89.70;;;;;;5032299;28;20650;-69
2021/09/08 05:12:06;;;;;;;10.65;7.70;;;11.40;89.50;;;;;;5031952;28;20187;-69
2021/09/08 05:14:33;;;;;;;8.07;6.88;;;11.40;89.60;;;;;;5032897;28;20713;-69
2021/09/08 05:17:05;;;;;;;8.50;6.53;;;11.30;89.80;;;;;;5033313;28;20281;-68
2021/09/08 05:19:32;;;;;;;9.15;7.00;;;11.30;90.30;;;;;;5032402;28;20183;-71
2021/09/08 05:21:59;;;;;;;8.18;7.38;;;11.40;90.60;;;;;;5032643;28;20281;-69
2021/09/08 05:24:27;;;;;;;7.10;5.78;;;11.40;90.60;;;;;;5030903;28;20246;-69
2021/09/08 05:26:54;;;;;;;8.25;7.45;;;11.40;90.60;;;;;;5033151;28;20201;-69
2021/09/08 05:29:21;;;;;;;9.23;7.88;;;11.50;90.70;;;;;;5033264;28;20201;-69
2021/09/08 05:31:48;;;;;;;7.80;6.60;;;11.60;90.90;;;;;;5033309;28;20222;-69
2021/09/08 05:34:15;;;;;;;10.02;7.05;;;11.70;91.20;;;;;;5031946;28;20552;-68
2021/09/08 05:36:42;;;;;;;9.90;7.05;;;11.80;91.50;;;;;;5032355;28;20231;-69
2021/09/08 05:39:09;;;;;;;8.85;7.00;;;11.90;91.30;;;;;;5032836;28;20187;-69
2021/09/08 05:41:37;;;;;;;8.10;6.32;;;12.00;91.10;;;;;;5032580;28;20254;-68
2021/09/08 05:44:21;;;;;;;10.82;7.95;;;12.10;90.80;;;;;;5032700;28;20310;-79
2021/09/08 05:46:49;;;;;;;9.70;8.05;;;12.30;91.00;;;;;;4993010;28;20280;-72
2021/09/08 05:49:16;;;;;;;8.27;7.32;;;12.40;91.10;;;;;;4992562;28;20199;-73
2021/09/08 05:51:43;;;;;;;9.50;7.60;;;12.50;91.30;;;;;;4992402;28;20283;-69
2021/09/08 05:54:10;;;;;;;10.10;8.02;;;12.60;91.30;;;;;;4992768;28;20227;-68
2021/09/08 05:56:39;;;;;;;11.15;7.35;;;12.80;91.30;;;;;;4991545;28;20275;-69
2021/09/08 05:59:10;;;;;;;10.27;8.05;;;12.90;91.10;;;;;;4991838;28;20193;-69
2021/09/08 06:01:37;;;;;;;10.90;9.63;;;13.10;91.20;;;;;;4992083;28;20348;-69
2021/09/08 06:04:04;;;;;;;10.75;9.07;;;13.20;91.10;;;;;;4991948;28;20311;-69
2021/09/08 06:06:48;;;;;;;13.32;9.95;;;13.40;90.80;;;;;;4989281;28;20271;-70
2021/09/08 06:09:16;;;;;;;12.63;8.77;;;13.40;90.70;;;;;;4986031;28;20624;-69
2021/09/08 06:11:46;;;;;;;12.52;9.30;;;13.60;90.80;;;;;;4978078;28;20197;-69
2021/09/08 06:14:14;;;;;;;10.10;8.85;;;13.70;91.00;;;;;;4983850;28;20185;-69
2021/09/08 06:16:44;;;;;;;10.48;9.02;;;13.90;91.00;;;;;;4978210;28;20277;-72
2021/09/08 06:19:11;;;;;;;11.60;8.75;;;14.10;90.70;;;;;;4985462;28;20286;-69
2021/09/08 06:21:41;;;;;;;10.20;9.07;;;14.30;90.40;;;;;;4981782;28;21017;-69
2021/09/08 06:24:10;;;;;;;14.07;10.15;;;14.40;90.10;;;;;;4991565;28;20231;-71
2021/09/08 06:26:37;;;;;;;13.25;10.25;;;14.50;89.60;;;;;;4977773;28;20191;-71
2021/09/08 06:29:08;;;;;;;11.90;10.10;;;14.50;90.00;;;;;;4975731;28;20208;-69
2021/09/08 06:31:35;;;;;;;11.80;9.70;;;14.60;90.20;;;;;;4975894;28;20193;-69
2021/09/08 06:34:02;;;;;;;12.00;9.50;;;14.60;89.40;;;;;;4992758;28;20212;-69
2021/09/08 06:36:29;;;;;;;11.93;10.43;;;14.70;89.60;;;;;;4981485;28;20243;-70
2021/09/08 06:38:56;;;;;;;13.38;11.98;;;14.80;89.90;;;;;;4981469;28;20196;-75
2021/09/08 06:41:23;;;;;;;12.35;9.52;;;14.90;90.20;;;;;;4975882;28;20197;-71
2021/09/08 06:43:51;;;;;;;12.93;10.23;;;15.00;89.60;;;;;;4975693;28;20256;-69
2021/09/08 06:46:20;;;;;;;13.10;9.35;;;15.10;90.00;;;;;;5007005;28;20980;-68
2021/09/08 06:48:47;;;;;;;12.53;10.37;;;15.20;89.90;;;;;;5015124;28;20603;-69
2021/09/08 06:51:14;;;;;;;10.63;9.63;;;15.30;90.50;;;;;;5014814;28;20529;-73
2021/09/08 06:53:41;;;;;;;12.03;9.50;;;15.40;90.10;;;;;;5015020;28;20442;-69
2021/09/08 06:56:17;;;;;;;13.60;11.10;;;15.50;89.50;;;;;;5014830;28;20445;-69
2021/09/08 06:58:44;;;;;;;14.37;10.77;;;15.70;89.70;;;;;;5015160;28;20446;-72
2021/09/08 07:01:11;;;;;;;9.87;8.93;;;15.90;89.70;;;;;;5014993;28;20438;-69
2021/09/08 07:03:39;;;;;;;16.27;9.77;;;16.10;89.30;;;;;;5025168;28;20531;-69
2021/09/08 07:06:06;;;;;;;11.40;10.30;;;16.30;88.60;;;;;;5034481;28;20446;-69
2021/09/08 07:08:33;;;;;;;11.03;9.83;;;16.60;87.70;;;;;;5035335;28;20474;-69
2021/09/08 07:11:00;;;;;;;14.20;10.03;;;16.90;85.90;;;;;;5031512;28;20527;-69
2021/09/08 07:13:27;;;;;;;11.80;10.60;;;17.20;86.00;;;;;;5015286;28;20818;-69
2021/09/08 07:15:54;;;;;;;11.17;9.40;;;17.60;85.90;;;;;;5015628;28;21004;-69
2021/09/08 07:18:20;;;;;;;12.80;9.77;;;18.10;84.90;;;;;;5015176;28;20996;-69
2021/09/08 07:20:49;;;;;;;10.77;9.77;;;18.60;84.50;;;;;;5015710;28;20474;-69
2021/09/08 07:23:15;;;;;;;11.80;10.10;;;19.20;84.90;;;;;;5015241;28;20546;-69
2021/09/08 07:25:42;;;;;;;12.37;10.10;;;20.10;83.70;;;;;;5014510;28;20501;-70
2021/09/08 07:28:09;;;;;;;11.60;9.20;;;21.00;79.70;;;;;;5034239;28;20442;-69
2021/09/08 07:30:37;;;;;;;11.50;9.63;;;22.10;75.00;;;;;;5034900;28;20524;-69
2021/09/08 07:33:04;;;;;;;11.73;9.90;;;23.40;69.60;;;;;;5034265;28;20495;-70
2021/09/08 07:35:31;;;;;;;10.10;8.77;;;25.40;63.90;;;;;;5034611;28;20533;-71
2021/09/08 07:38:00;;;;;;;10.47;8.40;;;27.60;55.80;;;;;;5034469;28;20524;-70
2021/09/08 07:40:27;;;;;;;10.30;8.97;;;29.50;48.90;;;;;;5034472;28;20496;-70
2021/09/08 07:42:54;;;;;;;10.30;8.97;;;31.10;43.40;;;;;;5034574;28;21004;-71
2021/09/08 07:45:21;;;;;;;11.97;8.70;;;32.40;42.00;;;;;;5033755;28;20477;-71
2021/09/08 07:47:48;;;;;;;11.77;9.73;;;33.80;38.30;;;;;;5034545;28;20434;-71
2021/09/08 07:50:15;;;;;;;14.90;8.93;;;35.10;34.50;;;;;;5034634;28;20481;-71
2021/09/08 07:52:42;;;;;;;9.60;8.60;;;36.20;32.30;;;;;;5034604;28;20457;-71
2021/09/08 07:55:12;;;;;;;9.83;8.83;;;37.30;30.30;;;;;;5034040;28;20434;-71
2021/09/08 07:57:39;;;;;;;10.03;8.57;;;38.40;28.20;;;;;;5034513;28;20453;-72
2021/09/08 08:00:09;;;;;;;8.80;8.00;;;39.40;26.40;;;;;;5034449;28;20481;-71
2021/09/08 08:02:43;;;;;;;10.57;9.43;;;40.30;26.00;;;;;;5034201;28;20445;-71
2021/09/08 08:05:11;;;;;;;10.23;7.80;;;41.00;23.90;;;;;;5033995;28;20481;-71
2021/09/08 08:07:38;;;;;;;10.53;9.40;;;41.50;23.00;;;;;;5033937;28;20521;-71
2021/09/08 08:10:07;;;;;;;8.60;7.80;;;42.20;24.00;;;;;;5033887;28;20524;-71
2021/09/08 08:12:35;;;;;;;8.90;7.50;;;42.80;21.60;;;;;;5033937;28;20867;-71
2021/09/08 08:15:02;;;;;;;7.93;7.23;;;43.40;22.00;;;;;;5033929;28;20442;-69
2021/09/08 08:17:29;;;;;;;9.17;8.30;;;43.90;20.60;;;;;;5033875;28;20532;-74
2021/09/08 08:19:55;;;;;;;9.47;8.57;;;44.30;19.90;;;;;;5033914;28;20459;-69
2021/09/08 08:22:22;;;;;;;8.90;7.23;;;44.70;20.10;;;;;;5033834;28;20842;-69
2021/09/08 08:24:49;;;;;;;8.93;8.13;;;45.40;19.60;;;;;;5033734;28;20478;-69
2021/09/08 08:27:16;;;;;;;9.20;8.50;;;45.80;18.70;;;;;;5033563;28;20995;-69
2021/09/08 08:29:44;;;;;;;8.50;7.73;;;45.90;18.50;;;;;;5033242;28;20442;-69
2021/09/08 08:32:11;;;;;;;8.53;7.83;;;46.10;18.10;;;;;;5033495;28;20476;-69
2021/09/08 08:34:38;;;;;;;9.43;8.60;;;46.50;17.70;;;;;;5033425;28;20540;-69
2021/09/08 08:37:10;;;;;;;8.43;7.77;;;46.70;18.10;;;;;;5033654;28;20848;-69
2021/09/08 08:39:38;;;;;;;8.33;7.40;;;47.20;17.70;;;;;;5033529;28;20477;-69
2021/09/08 08:42:06;;;;;;;9.50;8.33;;;47.90;17.80;;;;;;5033638;28;20477;-69
2021/09/08 08:44:33;;;;;;;9.13;7.57;;;48.60;17.20;;;;;;5032674;28;20501;-70
2021/09/08 08:47:02;;;;;;;9.57;8.63;;;49.10;16.00;;;;;;5033956;28;20853;-69
2021/09/08 08:49:30;;;;;;;11.30;8.37;;;49.50;16.10;;;;;;5033586;28;20980;-70
2021/09/08 08:51:57;;;;;;;8.53;7.73;;;49.90;15.80;;;;;;5033546;28;20440;-70
2021/09/08 08:54:24;;;;;;;8.30;7.60;;;50.10;15.50;;;;;;5033471;28;20881;-70
2021/09/08 08:56:52;;;;;;;8.50;7.80;;;50.20;14.50;;;;;;5033602;28;20536;-70
2021/09/08 08:59:19;;;;;;;8.20;7.40;;;50.50;15.10;;;;;;5033277;28;20449;-69
2021/09/08 09:01:46;;;;;;;8.43;7.67;;;50.90;14.80;;;;;;5033737;28;20856;-70
2021/09/08 09:04:17;;;;;;;8.60;7.90;;;51.20;14.70;;;;;;5033506;28;20488;-70
2021/09/08 09:06:48;;;;;;;9.33;8.10;;;51.80;14.20;;;;;;5033291;28;20469;-69
2021/09/08 09:09:17;;;;;;;9.20;7.37;;;52.00;14.40;;;;;;5033345;28;20540;-69
2021/09/08 09:11:45;;;;;;;9.00;8.20;;;52.20;14.00;;;;;;5033185;28;21039;-70
2021/09/08 09:14:14;;;;;;;10.10;8.30;;;52.40;13.80;;;;;;5033026;28;20511;-71
2021/09/08 09:16:43;;;;;;;7.30;6.70;;;52.80;13.40;;;;;;5032969;28;20967;-70
2021/09/08 09:19:11;;;;;;;8.80;7.90;;;53.10;13.50;;;;;;5033231;28;20473;-70
2021/09/08 09:21:40;;;;;;;8.23;7.50;;;53.50;12.90;;;;;;5033186;28;20529;-70
2021/09/08 09:24:09;;;;;;;6.73;6.13;;;53.80;13.00;;;;;;5032972;28;20452;-67
2021/09/08 09:26:39;;;;;;;9.17;7.40;;;54.20;13.20;;;;;;5033006;28;20492;-70
2021/09/08 09:29:08;;;;;;;7.63;7.03;;;54.50;12.50;;;;;;5033166;28;20473;-71
2021/09/08 09:31:49;;;;;;;11.27;6.67;;;54.90;12.40;;;;;;5033041;28;20532;-70
2021/09/08 09:34:15;;;;;;;6.60;6.10;;;55.00;12.20;;;;;;5032781;28;20905;-70
2021/09/08 09:36:44;;;;;;;6.07;5.47;;;55.50;11.90;;;;;;5033069;28;20529;-70
2021/09/08 09:39:11;;;;;;;7.20;6.60;;;55.70;11.50;;;;;;5033052;28;20473;-70
2021/09/08 09:41:38;;;;;;;6.40;5.73;;;55.80;11.20;;;;;;5032756;28;20995;-70
2021/09/08 09:44:10;;;;;;;6.57;5.87;;;55.80;11.10;;;;;;5033044;28;20521;-70
2021/09/08 09:46:40;;;;;;;6.50;5.90;;;55.80;11.30;;;;;;5032702;28;20549;-70
2021/09/08 09:49:07;;;;;;;9.20;8.50;;;56.30;11.20;;;;;;5032957;28;20866;-70
2021/09/08 09:51:34;;;;;;;8.17;5.50;;;56.50;10.70;;;;;;5032700;28;20852;-71
2021/09/08 09:54:03;;;;;;;7.57;6.03;;;56.80;10.70;;;;;;5032276;28;20517;-74
2021/09/08 09:56:30;;;;;;;6.03;5.43;;;57.00;10.50;;;;;;5036827;28;20441;-71
2021/09/08 09:58:58;;;;;;;6.47;5.87;;;57.00;10.40;;;;;;5037002;28;20861;-73
2021/09/08 10:01:25;;;;;;;6.60;6.10;;;57.10;10.70;;;;;;5037183;28;20895;-79
2021/09/08 10:03:53;;;;;;;10.03;5.87;;;57.00;10.80;;;;;;5036536;28;20441;-79
2021/09/08 10:06:20;;;;;;;6.50;5.30;;;57.10;10.50;;;;;;5035762;28;20462;-79
2021/09/08 10:08:49;;;;;;;6.63;5.20;;;57.20;10.60;;;;;;5036766;28;20860;-79
2021/09/08 10:11:23;;;;;;;5.80;5.30;;;57.50;10.30;;;;;;5036823;28;20916;-78
2021/09/08 10:13:54;;;;;;;5.30;4.80;;;57.60;10.00;;;;;;5036720;28;20476;-78
2021/09/08 10:16:22;;;;;;;5.93;5.43;;;57.80;10.20;;;;;;5036763;28;20568;-79
2021/09/08 10:18:50;;;;;;;6.33;5.73;;;58.00;10.40;;;;;;5036680;28;20765;-78
2021/09/08 10:21:20;;;;;;;7.93;5.30;;;57.80;9.90;;;;;;5036555;28;20528;-78
2021/09/08 10:23:54;;;;;;;6.30;5.80;;;57.40;10.50;;;;;;5036513;28;20457;-78
2021/09/08 10:26:28;;;;;;;6.10;5.40;;;57.60;10.10;;;;;;5036561;28;20437;-77
2021/09/08 10:28:57;;;;;;;5.37;4.97;;;57.70;10.60;;;;;;5036539;28;20465;-78
2021/09/08 10:31:26;;;;;;;7.00;6.43;;;57.90;10.90;;;;;;5036079;28;20500;-78
2021/09/08 10:33:56;;;;;;;6.10;5.60;;;58.10;10.60;;;;;;5036529;28;20437;-78
2021/09/08 10:36:24;;;;;;;6.33;5.70;;;57.80;10.10;;;;;;5036220;28;20485;-78
2021/09/08 10:39:04;;;;;;;6.40;5.80;;;57.70;10.30;;;;;;5036316;28;20450;-79
2021/09/08 10:41:40;;;;;;;6.50;5.90;;;57.70;10.30;;;;;;5036116;28;20442;-78
2021/09/08 10:44:07;;;;;;;5.70;5.20;;;57.80;10.20;;;;;;5036022;28;20528;-78
2021/09/08 10:46:52;;;;;;;7.00;6.30;;;57.90;10.40;;;;;;5035985;28;20472;-77
2021/09/08 10:49:47;;;;;;;6.67;5.10;;;57.90;10.20;;;;;;5035893;28;20983;-77
2021/09/08 10:52:35;;;;;;;6.90;6.20;;;57.80;10.50;;;;;;5035965;28;20932;-78
2021/09/08 10:55:20;;;;;;;6.57;6.00;;;57.70;10.60;;;;;;5035651;28;21069;-77
2021/09/08 10:58:07;;;;;;;6.07;5.57;;;57.60;10.70;;;;;;5035764;28;20444;-77
2021/09/08 11:00:39;;;;;;;6.20;5.67;;;57.60;11.10;;;;;;5035859;28;20489;-77
2021/09/08 11:03:35;;;;;;;6.17;5.67;;;57.50;11.30;;;;;;5035816;28;20441;-77
2021/09/08 11:06:02;;;;;;;6.10;5.60;;;57.50;11.20;;;;;;5033512;28;20446;-78
2021/09/08 11:08:30;;;;;;;5.77;5.27;;;57.50;10.70;;;;;;5035098;28;20441;-77
2021/09/08 11:11:10;;;;;;;6.10;5.60;;;57.40;11.00;;;;;;5035668;28;20532;-77
2021/09/08 11:13:37;;;;;;;6.23;5.60;;;57.30;11.60;;;;;;5035721;28;20437;-77
2021/09/08 11:16:16;;;;;;;5.90;5.50;;;57.30;11.20;;;;;;5035275;28;20525;-77
2021/09/08 11:18:43;;;;;;;5.80;5.30;;;57.30;11.40;;;;;;5035494;28;20919;-77
2021/09/08 11:21:10;;;;;;;6.53;5.93;;;57.40;11.70;;;;;;5035256;28;20437;-78
2021/09/08 11:23:37;;;;;;;5.60;5.10;;;57.30;11.00;;;;;;5034697;28;20492;-77
2021/09/08 11:26:10;;;;;;;6.60;5.20;;;57.30;11.30;;;;;;5035263;28;20434;-77
2021/09/08 11:28:38;;;;;;;5.97;5.23;;;57.20;11.30;;;;;;5035378;28;20438;-77
2021/09/08 11:31:17;;;;;;;6.00;5.50;;;56.90;11.00;;;;;;5034617;28;20529;-77
2021/09/08 11:33:44;;;;;;;6.60;6.00;;;56.70;11.20;;;;;;5035202;28;20473;-77
2021/09/08 11:36:14;;;;;;;5.80;5.30;;;56.10;11.30;;;;;;5034242;28;20481;-77
2021/09/08 11:38:47;;;;;;;6.30;5.70;;;55.30;11.70;;;;;;5034231;28;20536;-76
2021/09/08 11:41:17;;;;;;;6.30;4.80;;;54.30;11.60;;;;;;5034375;28;20438;-76
2021/09/08 11:43:47;;;;;;;5.47;5.00;;;53.10;12.30;;;;;;5033776;28;20540;-78
2021/09/08 11:46:17;;;;;;;5.30;4.87;;;51.90;13.20;;;;;;5013699;28;20470;-76
2021/09/08 11:48:45;;;;;;;5.67;5.17;;;50.90;13.40;;;;;;5028772;28;20940;-77
2021/09/08 11:51:14;;;;;;;6.00;5.50;;;49.70;13.10;;;;;;5023620;28;20474;-76
2021/09/08 11:53:41;;;;;;;6.00;5.50;;;48.80;14.50;;;;;;5026921;28;20528;-77
2021/09/08 11:56:10;;;;;;;5.70;5.20;;;48.00;14.30;;;;;;5034104;28;20570;-77
2021/09/08 11:58:39;;;;;;;6.10;5.50;;;47.30;15.50;;;;;;5033093;28;20995;-76
2021/09/08 12:01:09;;;;;;;5.60;5.00;;;46.70;16.50;;;;;;5030717;28;20512;-76
2021/09/08 12:03:39;;;;;;;5.67;5.07;;;46.20;16.70;;;;;;5032362;28;20444;-76
2021/09/08 12:06:12;;;;;;;6.00;5.40;;;45.60;17.30;;;;;;5033774;28;20434;-76
2021/09/08 12:08:51;;;;;;;5.80;5.30;;;45.10;17.70;;;;;;5027588;28;20437;-76
2021/09/08 12:11:32;;;;;;;7.30;5.47;;;44.60;17.70;;;;;;5014219;28;20458;-76
2021/09/08 12:14:15;;;;;;;6.83;6.23;;;44.00;18.40;;;;;;5020908;28;20430;-76
2021/09/08 12:16:42;;;;;;;6.23;5.60;;;43.40;18.90;;;;;;5014131;28;20521;-76
2021/09/08 12:19:13;;;;;;;5.83;5.33;;;43.00;19.30;;;;;;5012863;28;20439;-76
2021/09/08 12:21:40;;;;;;;6.77;6.17;;;42.50;19.50;;;;;;5031031;28;20453;-77
2021/09/08 12:24:22;;;;;;;7.70;6.00;;;42.10;20.10;;;;;;5033155;28;20442;-76
2021/09/08 12:26:49;;;;;;;6.63;5.47;;;41.50;20.50;;;;;;5033517;28;20437;-76
2021/09/08 12:29:18;;;;;;;7.27;5.47;;;41.10;20.50;;;;;;5018049;28;20446;-77
2021/09/08 12:31:50;;;;;;;7.50;5.53;;;40.80;21.00;;;;;;5015529;28;20475;-77
2021/09/08 12:34:18;;;;;;;8.80;4.90;;;40.40;21.30;;;;;;5033286;28;20441;-77
2021/09/08 12:36:45;;;;;;;5.37;4.87;;;40.00;20.90;;;;;;5033073;28;20489;-77
2021/09/08 12:39:18;;;;;;;5.97;5.37;;;39.50;21.80;;;;;;5033107;28;20477;-77
2021/09/08 12:41:58;;;;;;;5.70;5.20;;;39.00;22.00;;;;;;5032544;28;20437;-77
2021/09/08 12:44:33;;;;;;;5.37;4.87;;;38.60;22.10;;;;;;5033012;28;20425;-77
2021/09/08 12:47:08;;;;;;;5.70;5.10;;;38.10;22.70;;;;;;5033303;28;20928;-76
2021/09/08 12:49:36;;;;;;;6.67;5.37;;;37.60;23.70;;;;;;5033356;28;20491;-76